Los Angeles, California
Traffic Map
Current Weather Conditions
Los Angeles, California
Few Clouds
Few Clouds
67°
Feels Like: 67°
Wind Chill: 67° Ceiling: Unl
Heat Index: 67° Visibility: 10mi
Dew Point: 55° Wind: 5mph
Humidity: 66% Direction: ° ()
Pressure: 29.86in Gusts: 0mph
Raw Report DataKCQT 282347Z AUTO VRB04KT 10SM FEW019 19/13 A2986 RMK AO2 SLP110 T01940128 10222 20189 56003
Traffic Incident Summary
Active as of:
Severity:
Category:
InformationThere was an issue retrieving the traffic information for this location. Please try a different location or try again shortly.
Advertisements
Track Severe Weather on mobile